ADDS METAR Data INFO
IDs: Format: Raw Decoded Include TAF

Data at: 1336 UTC 23 Jun 2018

KCEZ 231253Z AUTO 00000KT 10SM CLR 11/M02 A3006 RMK AO2 SLP099 T01111017
KCEZ 231153Z AUTO 02003KT 10SM CLR 08/M03 A3005 RMK AO2 SLP101 T00831028 10161 20078 53006
KCEZ 231053Z AUTO 07004KT 10SM CLR 09/M03 A3004 RMK AO2 SLP094 T00891028
KCEZ 230953Z AUTO 05009KT 10SM CLR 11/M03 A3003 RMK AO2 SLP085 T01061028
KCEZ 230853Z AUTO 04007KT 10SM CLR 12/M03 A3003 RMK AO2 SLP084 T01221028 53003
KCEZ 230753Z AUTO 06009KT 10SM CLR 13/M02 A3002 RMK AO2 SLP079 T01281022
KCEZ 230653Z AUTO 11003KT 10SM CLR 13/M01 A3003 RMK AO2 SLP084 T01281011 403390089
KCEZ 230553Z AUTO 06007KT 10SM CLR 16/M04 A3002 RMK AO2 SLP078 T01611039 10317 20161 50008
KCEZ 230453Z AUTO 06003KT 10SM CLR 21/M07 A3003 RMK AO2 SLP071 T02061072
KCEZ 230353Z AUTO 35004KT 10SM CLR 19/M06 A3002 RMK AO2 SLP076 T01941056
KCEZ 230253Z AUTO 35008KT 10SM CLR 26/M11 A2999 RMK AO2 SLP065 T02561106 53009
KCEZ 230153Z AUTO 34013G18KT 10SM CLR 28/M11 A2998 RMK AO2 SLP066 T02781106
KCEZ 230053Z AUTO 34013G23KT 10SM CLR 31/M06 A2997 RMK AO2 SLP065 T03111056
KCEZ 222353Z AUTO 36014G21KT 10SM CLR 32/M04 A2996 RMK AO2 PK WND 27029/2309 WSHFT 2326 SLP064 T03171044 10339 20306 56007
KCEZ 222346Z AUTO 34014G24KT 10SM CLR 32/M05 A2996 RMK AO2 PK WND 27029/2309 WSHFT 2326 T03171050
KCEZ 222253Z AUTO 28013G28KT 10SM CLR 33/M07 A2997 RMK AO2 PK WND 27028/2245 WSHFT 2228 SLP062 T03331067
KCEZ 222248Z AUTO 28019G28KT 10SM CLR 33/M07 A2996 RMK AO2 PK WND 27028/2245 WSHFT 2228
KCEZ 222153Z AUTO 27014G24KT 10SM CLR 33/M06 A2998 RMK AO2 SLP070 T03331061
KCEZ 222053Z AUTO 26019G30KT 10SM CLR 33/M04 A3000 RMK AO2 PK WND 25030/2045 SLP075 T03331044 58017
KCEZ 221953Z AUTO 27015G23KT 10SM CLR 33/M04 A3002 RMK AO2 SLP079 T03281039
KCEZ 221853Z AUTO 25005G17KT 10SM CLR 32/M04 A3004 RMK AO2 SLP087 T03171039
KCEZ 221753Z AUTO VRB06KT 10SM CLR 31/M03 A3006 RMK AO2 SLP092 T03061033 10311 20094 56011
KCEZ 221653Z AUTO 27009KT 10SM CLR 30/M04 A3007 RMK AO2 SLP093 T03001039
KCEZ 221553Z AUTO 19003KT 10SM CLR 27/M01 A3009 RMK AO2 SLP102 T02671006
KCEZ 221453Z AUTO 08004KT 10SM CLR 22/01 A3010 RMK AO2 SLP099 T02220006 53006
KCEZ 221353Z AUTO 02004KT 10SM CLR 18/00 A3009 RMK AO2 SLP097 T01780000
KCEZ 221253Z AUTO 01004KT 10SM CLR 12/02 A3009 RMK AO2 SLP103 T01220017
KCEZ 221153Z AUTO 08009KT 10SM CLR 10/00 A3008 RMK AO2 SLP105 T01000000 10156 20089 53007
KCEZ 221053Z AUTO 09006KT 10SM CLR 11/00 A3007 RMK AO2 SLP098 T01060000
KCEZ 220953Z AUTO 07006KT 10SM CLR 10/00 A3005 RMK AO2 SLP092 T01000000
KCEZ 220853Z AUTO 06006KT 10SM CLR 11/01 A3005 RMK AO2 SLP093 T01060011 58001
KCEZ 220753Z AUTO 09005KT 10SM CLR 13/00 A3006 RMK AO2 SLP091 T01330000
KCEZ 220653Z AUTO 08006KT 10SM CLR 13/01 A3006 RMK AO2 SLP092 T01330011 403440078
KCEZ 220553Z AUTO 07007KT 10SM CLR 16/M01 A3006 RMK AO2 SLP090 T01561006 10339 20156 50001
KCEZ 220453Z AUTO 05009KT 10SM CLR 17/M01 A3006 RMK AO2 SLP095 T01721006
KCEZ 220353Z AUTO 06006KT 10SM CLR 19/02 A3006 RMK AO2 SLP097 T01890017
KCEZ 220253Z AUTO 25005KT 10SM CLR 27/M07 A3005 RMK AO2 SLP085 T02721072 56006
KCEZ 220153Z AUTO 24006KT 10SM CLR 32/M04 A3005 RMK AO2 SLP085 T03171039